Time;durP1;ratioP1;P1;durP2;ratioP2;P2;SDS_P1;SDS_P2;PMS_P1;PMS_P2;Temp;Humidity;BMP_temperature;BMP_pressure;BME280_temperature;BME280_humidity;BME280_pressure;Samples;Min_cycle;Max_cycle;Signal;HPM_P1;HPM_P2
2023/03/17 00:01:43;;;;;;;10.13;5.40;;;7.80;99.90;;;;;;5027701;28;20045;-56
2023/03/17 00:04:11;;;;;;;8.05;4.93;;;7.70;99.90;;;;;;5026119;28;20299;-58
2023/03/17 00:06:38;;;;;;;8.75;5.32;;;7.80;99.90;;;;;;5026103;28;20076;-56
2023/03/17 00:09:05;;;;;;;7.75;5.13;;;7.80;99.90;;;;;;4989846;28;20049;-60
2023/03/17 00:11:31;;;;;;;7.22;5.18;;;7.80;99.90;;;;;;5036641;28;20037;-55
2023/03/17 00:13:57;;;;;;;8.32;5.38;;;7.80;99.90;;;;;;5025957;28;20724;-52
2023/03/17 00:16:26;;;;;;;6.88;5.03;;;7.80;99.90;;;;;;5031367;28;20038;-53
2023/03/17 00:18:56;;;;;;;8.02;5.05;;;7.80;99.90;;;;;;5034340;28;20044;-54
2023/03/17 00:21:30;;;;;;;7.00;4.63;;;7.80;99.90;;;;;;5029694;28;20044;-55
2023/03/17 00:23:57;;;;;;;8.27;5.10;;;7.80;99.90;;;;;;5027027;28;20099;-59
2023/03/17 00:26:24;;;;;;;7.97;5.03;;;7.80;99.90;;;;;;5031641;28;20279;-53
2023/03/17 00:28:50;;;;;;;9.13;5.05;;;7.80;99.90;;;;;;5010771;28;20202;-55
2023/03/17 00:31:22;;;;;;;9.45;5.03;;;7.80;99.90;;;;;;5009145;28;20042;-56
2023/03/17 00:33:51;;;;;;;9.55;5.25;;;7.80;99.90;;;;;;5037007;22;21209;-55
2023/03/17 00:36:21;;;;;;;8.50;5.68;;;7.80;99.90;;;;;;5013060;28;20118;-56
2023/03/17 00:38:47;;;;;;;10.68;5.70;;;7.80;99.90;;;;;;5026860;28;20528;-56
2023/03/17 00:41:13;;;;;;;9.57;4.60;;;7.80;99.90;;;;;;5028577;28;20741;-55
2023/03/17 00:43:39;;;;;;;7.35;5.15;;;7.80;99.90;;;;;;5005975;28;20140;-56
2023/03/17 00:46:13;;;;;;;8.20;4.97;;;7.80;99.90;;;;;;5025527;28;20045;-56
2023/03/17 00:48:40;;;;;;;7.50;4.30;;;7.80;99.90;;;;;;5005969;28;20045;-55
2023/03/17 00:51:06;;;;;;;8.07;4.78;;;7.80;99.90;;;;;;4993203;28;20053;-54
2023/03/17 00:53:33;;;;;;;7.80;5.35;;;7.80;99.90;;;;;;5002626;28;20114;-55
2023/03/17 00:55:59;;;;;;;11.70;4.63;;;7.80;99.90;;;;;;5012745;28;20114;-57
2023/03/17 00:58:29;;;;;;;8.02;4.68;;;7.80;99.90;;;;;;5012402;28;20041;-56
2023/03/17 01:00:55;;;;;;;7.10;4.60;;;7.80;99.90;;;;;;5006831;28;20128;-56
2023/03/17 01:03:22;;;;;;;7.60;4.93;;;7.80;99.90;;;;;;4991410;28;20046;-57
2023/03/17 01:05:52;;;;;;;9.98;4.20;;;7.80;99.90;;;;;;5020387;28;20120;-57
2023/03/17 01:08:20;;;;;;;7.38;4.30;;;7.80;99.90;;;;;;4987187;28;20146;-57
2023/03/17 01:10:46;;;;;;;6.97;4.28;;;7.90;99.90;;;;;;4995319;28;20120;-57
2023/03/17 01:13:13;;;;;;;7.80;4.60;;;7.90;99.90;;;;;;5011767;28;20523;-57
2023/03/17 01:15:45;;;;;;;7.60;4.20;;;7.90;99.90;;;;;;5012914;28;20128;-57
2023/03/17 01:18:12;;;;;;;6.40;4.63;;;7.90;99.90;;;;;;5010482;28;20057;-56
2023/03/17 01:20:38;;;;;;;6.78;3.97;;;7.90;99.90;;;;;;5007640;28;20377;-54
2023/03/17 01:23:04;;;;;;;7.00;4.32;;;7.90;99.90;;;;;;5006620;28;20052;-56
2023/03/17 01:25:30;;;;;;;6.00;4.60;;;7.90;99.90;;;;;;5008645;28;20076;-56
2023/03/17 01:27:58;;;;;;;5.63;3.50;;;7.90;99.90;;;;;;4990324;28;20048;-57
2023/03/17 01:30:31;;;;;;;7.03;4.10;;;7.90;99.90;;;;;;5004648;28;20115;-56
2023/03/17 01:32:58;;;;;;;7.30;4.28;;;8.00;99.90;;;;;;5002967;28;20041;-57
2023/03/17 01:35:25;;;;;;;6.88;4.10;;;7.90;99.90;;;;;;5007741;28;20033;-56
2023/03/17 01:37:52;;;;;;;8.60;4.25;;;7.90;99.90;;;;;;5007390;28;20045;-57
2023/03/17 01:40:26;;;;;;;7.35;3.92;;;7.90;99.90;;;;;;4985100;28;20127;-56
2023/03/17 01:43:07;;;;;;;6.60;4.72;;;7.90;99.90;;;;;;5007249;28;20048;-55
2023/03/17 01:46:11;;;;;;;6.18;3.90;;;8.00;99.90;;;;;;4981156;28;20528;-56
2023/03/17 01:48:45;;;;;;;8.05;4.00;;;8.00;99.90;;;;;;4999169;28;20053;-56
2023/03/17 01:51:17;;;;;;;5.03;3.90;;;8.00;99.90;;;;;;5005928;28;20072;-56
2023/03/17 01:53:47;;;;;;;6.45;3.72;;;8.00;99.90;;;;;;5000285;28;20041;-56
2023/03/17 01:56:14;;;;;;;7.50;3.50;;;8.00;99.90;;;;;;5022728;28;20045;-57
2023/03/17 01:58:40;;;;;;;6.20;4.10;;;8.00;99.90;;;;;;5007638;28;20042;-56
2023/03/17 02:01:07;;;;;;;5.45;3.90;;;8.00;99.90;;;;;;4990258;28;20326;-57
2023/03/17 02:03:33;;;;;;;6.20;4.47;;;8.00;99.90;;;;;;5005652;28;20045;-56
2023/03/17 02:06:00;;;;;;;7.00;4.05;;;7.90;99.90;;;;;;5007324;28;20056;-55
2023/03/17 02:08:26;;;;;;;6.82;4.03;;;7.90;99.90;;;;;;5000925;28;20398;-55
2023/03/17 02:10:53;;;;;;;10.90;4.85;;;7.90;99.90;;;;;;4988862;28;20308;-56
2023/03/17 02:13:18;;;;;;;6.13;3.78;;;7.90;99.90;;;;;;5004236;28;20451;-55
2023/03/17 02:15:48;;;;;;;6.18;4.10;;;7.90;99.90;;;;;;5001891;28;20041;-56
2023/03/17 02:18:16;;;;;;;6.32;4.30;;;7.90;99.90;;;;;;5004989;28;20089;-56
2023/03/17 02:20:45;;;;;;;8.35;3.95;;;7.90;99.90;;;;;;5001912;28;20041;-56
2023/03/17 02:23:15;;;;;;;5.65;4.00;;;7.90;99.90;;;;;;5016110;28;20112;-56
2023/03/17 02:25:44;;;;;;;6.38;4.35;;;7.90;99.90;;;;;;5001944;28;20048;-55
2023/03/17 02:28:15;;;;;;;6.20;4.15;;;7.90;99.90;;;;;;5012643;28;20111;-54
2023/03/17 02:30:41;;;;;;;5.90;4.07;;;7.90;99.90;;;;;;5005731;28;20061;-54
2023/03/17 02:33:11;;;;;;;6.40;3.60;;;7.90;99.90;;;;;;4986665;28;20045;-55
2023/03/17 02:35:38;;;;;;;7.05;4.07;;;7.90;99.90;;;;;;5004854;28;20033;-56
2023/03/17 02:38:04;;;;;;;6.70;4.47;;;7.80;99.90;;;;;;5002038;28;20088;-56
2023/03/17 02:40:30;;;;;;;7.63;3.88;;;7.90;99.90;;;;;;5004774;28;20496;-56
2023/03/17 02:42:56;;;;;;;9.32;4.32;;;7.90;99.90;;;;;;5008894;28;20045;-54
2023/03/17 02:45:22;;;;;;;6.55;3.95;;;7.80;99.90;;;;;;4988042;28;20492;-54
2023/03/17 02:47:50;;;;;;;7.03;4.18;;;7.80;99.90;;;;;;5011650;28;20570;-54
2023/03/17 02:50:21;;;;;;;9.02;4.55;;;7.80;99.90;;;;;;5001169;28;20052;-54
2023/03/17 02:52:48;;;;;;;7.50;4.00;;;7.80;99.90;;;;;;5002736;28;20033;-56
2023/03/17 02:55:14;;;;;;;9.00;4.63;;;7.80;99.90;;;;;;5011678;28;21415;-56
2023/03/17 02:57:40;;;;;;;7.63;3.97;;;7.80;99.90;;;;;;5027946;28;20476;-55
2023/03/17 03:00:09;;;;;;;8.27;4.60;;;7.80;99.90;;;;;;5009380;28;20048;-55
2023/03/17 03:02:36;;;;;;;6.57;4.00;;;7.70;99.90;;;;;;5002158;28;20053;-56
2023/03/17 03:05:02;;;;;;;5.18;3.78;;;7.70;99.90;;;;;;5006484;28;20506;-55
2023/03/17 03:07:28;;;;;;;8.30;4.20;;;7.70;99.90;;;;;;5011103;28;20400;-57
2023/03/17 03:09:54;;;;;;;7.53;4.35;;;7.70;99.90;;;;;;4989754;28;20136;-56
2023/03/17 03:12:20;;;;;;;6.97;4.18;;;7.70;99.90;;;;;;4986397;28;20119;-55
2023/03/17 03:14:46;;;;;;;6.45;4.13;;;7.70;99.90;;;;;;5024221;28;20411;-55
2023/03/17 03:17:12;;;;;;;6.43;4.10;;;7.70;99.90;;;;;;5002189;28;20259;-56
2023/03/17 03:19:38;;;;;;;7.07;4.40;;;7.70;99.90;;;;;;4975151;28;20145;-56
2023/03/17 03:22:04;;;;;;;5.43;4.07;;;7.70;99.90;;;;;;5006204;28;20139;-55
2023/03/17 03:24:30;;;;;;;7.00;3.78;;;7.70;99.90;;;;;;5000578;28;20119;-56
2023/03/17 03:26:56;;;;;;;5.65;3.80;;;7.70;99.90;;;;;;5002660;28;20046;-55
2023/03/17 03:29:21;;;;;;;7.25;3.85;;;7.70;99.90;;;;;;5013225;28;20053;-55
2023/03/17 03:31:47;;;;;;;6.72;3.85;;;7.70;99.90;;;;;;5003377;28;20038;-53
2023/03/17 03:34:13;;;;;;;6.45;4.20;;;7.70;99.90;;;;;;5003550;28;20044;-53
2023/03/17 03:36:39;;;;;;;8.75;5.00;;;7.70;99.90;;;;;;5006434;28;20284;-55
2023/03/17 03:39:05;;;;;;;7.00;4.47;;;7.70;99.90;;;;;;5005800;28;20128;-56
2023/03/17 03:41:31;;;;;;;6.35;4.13;;;7.70;99.90;;;;;;5001129;28;20140;-57
2023/03/17 03:43:56;;;;;;;10.98;4.57;;;7.70;99.90;;;;;;4972825;28;20061;-56
2023/03/17 03:46:22;;;;;;;5.85;4.15;;;7.70;99.90;;;;;;4988702;28;20045;-56
2023/03/17 03:48:48;;;;;;;7.15;4.22;;;7.70;99.90;;;;;;4987340;28;20049;-56
2023/03/17 03:51:17;;;;;;;8.05;4.35;;;7.70;99.90;;;;;;5021548;28;20044;-56
2023/03/17 03:53:42;;;;;;;6.20;4.13;;;7.70;99.90;;;;;;5021015;28;20041;-56
2023/03/17 03:56:08;;;;;;;7.97;4.20;;;7.70;99.90;;;;;;4996971;28;20037;-56
2023/03/17 03:58:34;;;;;;;11.85;5.15;;;7.70;99.90;;;;;;5002397;28;20045;-56
2023/03/17 04:01:04;;;;;;;8.90;4.32;;;7.70;99.90;;;;;;5018794;28;20048;-54
2023/03/17 04:03:30;;;;;;;5.40;3.67;;;7.70;99.90;;;;;;5000492;28;20496;-56
2023/03/17 04:05:56;;;;;;;5.95;4.25;;;7.70;99.90;;;;;;4987077;28;20582;-54
2023/03/17 04:08:22;;;;;;;6.65;4.35;;;7.70;99.90;;;;;;5011056;28;20191;-56
2023/03/17 04:10:47;;;;;;;7.45;4.22;;;7.70;99.90;;;;;;5005012;28;20068;-56
2023/03/17 04:13:14;;;;;;;7.57;4.22;;;7.70;99.90;;;;;;5008698;28;20063;-54
2023/03/17 04:15:39;;;;;;;7.15;3.83;;;7.70;99.90;;;;;;5004916;28;20041;-55
2023/03/17 04:18:05;;;;;;;6.57;4.00;;;7.70;99.90;;;;;;5007029;28;20037;-55
2023/03/17 04:20:34;;;;;;;6.60;3.97;;;7.70;99.90;;;;;;5008130;28;20038;-56
2023/03/17 04:23:00;;;;;;;8.13;4.57;;;7.70;99.90;;;;;;5006459;28;20163;-57
2023/03/17 04:25:26;;;;;;;6.45;4.40;;;7.60;99.90;;;;;;5012379;28;20043;-55
2023/03/17 04:27:52;;;;;;;9.55;3.97;;;7.60;99.90;;;;;;4986058;28;20049;-55
2023/03/17 04:30:17;;;;;;;8.77;4.18;;;7.60;99.90;;;;;;5006594;28;20400;-56
2023/03/17 04:32:44;;;;;;;7.38;3.90;;;7.60;99.90;;;;;;5002362;28;20492;-57
2023/03/17 04:35:18;;;;;;;5.60;3.70;;;7.60;99.90;;;;;;5008713;28;20218;-57
2023/03/17 04:37:45;;;;;;;8.30;3.95;;;7.60;99.90;;;;;;4999237;28;20041;-56
2023/03/17 04:40:12;;;;;;;7.97;4.55;;;7.50;99.90;;;;;;5014588;28;20167;-55
2023/03/17 04:42:38;;;;;;;6.53;3.92;;;7.50;99.90;;;;;;5012523;28;20048;-56
2023/03/17 04:45:05;;;;;;;6.45;4.20;;;7.50;99.90;;;;;;5023314;28;20029;-56
2023/03/17 04:47:31;;;;;;;7.45;4.05;;;7.50;99.90;;;;;;5004023;28;20044;-57
2023/03/17 04:50:00;;;;;;;5.75;3.72;;;7.50;99.90;;;;;;4990302;28;20049;-55
2023/03/17 04:52:26;;;;;;;8.55;4.18;;;7.50;99.90;;;;;;5007480;28;20438;-56
2023/03/17 04:54:52;;;;;;;9.38;4.60;;;7.40;99.90;;;;;;5002321;28;20116;-55
2023/03/17 04:57:17;;;;;;;5.75;3.80;;;7.40;99.90;;;;;;4986174;28;20076;-55
2023/03/17 04:59:43;;;;;;;8.43;4.20;;;7.40;99.90;;;;;;4985048;28;20276;-56
2023/03/17 05:02:16;;;;;;;5.30;4.15;;;7.50;99.90;;;;;;4985516;28;20069;-55
2023/03/17 05:04:43;;;;;;;7.53;4.10;;;7.40;99.90;;;;;;5001672;28;20085;-56
2023/03/17 05:07:10;;;;;;;7.50;3.90;;;7.40;99.90;;;;;;5009746;28;20105;-54
2023/03/17 05:09:36;;;;;;;8.88;4.15;;;7.40;99.90;;;;;;5004624;28;20095;-55
2023/03/17 05:12:03;;;;;;;7.45;3.65;;;7.40;99.90;;;;;;4986719;28;20080;-57
2023/03/17 05:14:29;;;;;;;6.47;4.25;;;7.40;99.90;;;;;;5005417;28;20550;-55
2023/03/17 05:16:54;;;;;;;7.57;4.05;;;7.40;99.90;;;;;;5005553;28;20041;-54
2023/03/17 05:19:20;;;;;;;5.60;4.13;;;7.40;99.90;;;;;;4983649;28;20391;-55
2023/03/17 05:21:46;;;;;;;7.53;4.00;;;7.50;99.90;;;;;;5027028;28;20544;-56
2023/03/17 05:24:12;;;;;;;7.00;4.07;;;7.50;99.90;;;;;;5001836;28;20054;-55
2023/03/17 05:26:38;;;;;;;8.30;3.95;;;7.50;99.90;;;;;;5006107;28;20045;-55
2023/03/17 05:29:04;;;;;;;5.15;3.63;;;7.50;99.90;;;;;;5007516;28;20049;-57
2023/03/17 05:31:31;;;;;;;7.25;4.35;;;7.50;99.90;;;;;;5003306;28;20072;-54
2023/03/17 05:33:57;;;;;;;7.60;3.97;;;7.50;99.90;;;;;;5006260;28;20041;-56
2023/03/17 05:36:26;;;;;;;6.68;4.05;;;7.50;99.90;;;;;;5006632;28;20385;-53
2023/03/17 05:38:51;;;;;;;6.80;3.90;;;7.50;99.90;;;;;;5005149;28;20057;-53
2023/03/17 05:41:17;;;;;;;4.93;3.65;;;7.50;99.90;;;;;;4997661;28;20033;-54
2023/03/17 05:43:46;;;;;;;5.82;3.78;;;7.50;99.90;;;;;;5009910;28;20087;-55
2023/03/17 05:46:12;;;;;;;5.82;4.43;;;7.50;99.90;;;;;;5004811;28;20047;-52
2023/03/17 05:48:38;;;;;;;7.25;4.13;;;7.60;99.90;;;;;;5004550;28;20412;-54
2023/03/17 05:51:04;;;;;;;6.40;3.85;;;7.50;99.90;;;;;;5004253;28;20038;-54
2023/03/17 05:53:30;;;;;;;8.93;4.22;;;7.50;99.90;;;;;;5003866;28;20075;-54
2023/03/17 05:55:55;;;;;;;6.47;4.20;;;7.50;99.90;;;;;;5007115;28;20157;-53
2023/03/17 05:58:21;;;;;;;6.10;4.13;;;7.60;99.90;;;;;;5008523;28;20135;-52
2023/03/17 06:00:50;;;;;;;6.38;3.95;;;7.50;99.90;;;;;;4983246;28;20116;-55
2023/03/17 06:03:16;;;;;;;7.32;4.20;;;7.60;99.90;;;;;;4988884;28;20308;-51
2023/03/17 06:05:44;;;;;;;6.70;4.07;;;7.60;99.90;;;;;;4988689;28;20050;-54
2023/03/17 06:08:10;;;;;;;5.80;3.80;;;7.60;99.90;;;;;;4987802;28;20397;-55
2023/03/17 06:10:36;;;;;;;5.38;3.97;;;7.60;99.90;;;;;;5009978;28;20049;-55
2023/03/17 06:13:03;;;;;;;6.38;3.70;;;7.60;99.90;;;;;;5013465;28;20080;-55
2023/03/17 06:15:29;;;;;;;5.88;4.07;;;7.60;99.90;;;;;;5002167;28;20046;-54
2023/03/17 06:17:55;;;;;;;6.18;3.50;;;7.60;99.90;;;;;;4990933;28;20058;-54
2023/03/17 06:20:21;;;;;;;6.65;3.40;;;7.60;99.90;;;;;;5020934;28;20617;-54
2023/03/17 06:22:46;;;;;;;5.30;3.75;;;7.60;99.90;;;;;;5006707;28;20057;-52
2023/03/17 06:25:12;;;;;;;6.82;3.90;;;7.60;99.90;;;;;;5000973;28;20038;-55
2023/03/17 06:27:38;;;;;;;6.50;4.22;;;7.60;99.90;;;;;;5007077;28;20041;-51
2023/03/17 06:30:05;;;;;;;5.97;4.18;;;7.60;99.90;;;;;;4988412;28;20037;-52
2023/03/17 06:32:32;;;;;;;5.72;3.47;;;7.70;99.90;;;;;;5007031;28;20314;-55
2023/03/17 06:34:58;;;;;;;10.52;3.78;;;7.60;99.90;;;;;;5032095;22;20040;-54
2023/03/17 06:37:24;;;;;;;6.65;3.88;;;7.60;99.90;;;;;;5038029;28;20098;-53
2023/03/17 06:39:50;;;;;;;8.05;3.80;;;7.60;99.90;;;;;;5043450;28;20617;-56
2023/03/17 06:42:16;;;;;;;6.15;3.95;;;7.70;99.90;;;;;;5041533;28;20083;-55
2023/03/17 06:44:42;;;;;;;6.18;3.53;;;7.70;99.90;;;;;;5057870;28;20077;-54
2023/03/17 06:47:07;;;;;;;6.68;4.00;;;7.70;99.90;;;;;;5060121;28;20045;-56
2023/03/17 06:49:33;;;;;;;7.47;3.80;;;7.70;99.90;;;;;;5021538;28;20048;-55
2023/03/17 06:51:59;;;;;;;6.43;3.38;;;7.70;99.90;;;;;;5041787;28;20127;-56
2023/03/17 06:54:25;;;;;;;6.32;3.80;;;7.70;99.90;;;;;;5053913;28;20575;-56
2023/03/17 06:56:51;;;;;;;5.45;3.90;;;7.80;99.90;;;;;;5059018;28;20131;-56
2023/03/17 06:59:18;;;;;;;4.63;3.25;;;7.80;99.90;;;;;;5043009;28;20483;-56
2023/03/17 07:01:45;;;;;;;7.80;3.65;;;7.80;99.90;;;;;;5060075;28;20044;-56
2023/03/17 07:04:11;;;;;;;6.05;4.03;;;7.90;99.90;;;;;;5058535;28;20047;-56
2023/03/17 07:06:39;;;;;;;5.10;3.70;;;7.90;99.90;;;;;;5041497;28;20053;-55
2023/03/17 07:09:06;;;;;;;7.32;3.85;;;7.90;99.90;;;;;;5058384;28;20594;-55
2023/03/17 07:11:35;;;;;;;7.75;3.65;;;8.00;99.90;;;;;;5054575;28;20049;-56
2023/03/17 07:14:01;;;;;;;6.53;4.03;;;8.00;99.90;;;;;;5059833;28;20044;-56
2023/03/17 07:16:27;;;;;;;7.03;3.88;;;8.00;99.90;;;;;;5043608;28;20649;-57
2023/03/17 07:18:54;;;;;;;6.22;3.75;;;8.00;99.90;;;;;;5056652;28;20438;-55
2023/03/17 07:21:22;;;;;;;5.85;3.72;;;8.00;99.90;;;;;;5036997;28;20072;-55
2023/03/17 07:23:48;;;;;;;5.85;3.42;;;8.10;99.90;;;;;;5040446;28;20513;-56
2023/03/17 07:26:14;;;;;;;5.55;3.50;;;8.10;99.90;;;;;;5057271;28;20037;-57
2023/03/17 07:28:40;;;;;;;5.30;3.20;;;8.20;99.90;;;;;;5052791;28;20033;-55
2023/03/17 07:31:12;;;;;;;6.03;3.22;;;8.20;99.90;;;;;;5056020;28;20582;-57
2023/03/17 07:33:39;;;;;;;6.75;3.70;;;8.30;99.90;;;;;;5042715;28;20399;-57
2023/03/17 07:36:06;;;;;;;6.68;3.90;;;8.40;99.90;;;;;;5035399;28;20123;-56
2023/03/17 07:38:32;;;;;;;4.80;3.17;;;8.50;99.90;;;;;;5038423;28;20128;-57
2023/03/17 07:40:58;;;;;;;6.25;3.97;;;8.50;99.90;;;;;;5058248;28;20087;-57
2023/03/17 07:43:25;;;;;;;5.82;3.30;;;8.60;99.90;;;;;;5062119;28;20482;-57
2023/03/17 07:45:51;;;;;;;6.93;4.30;;;8.60;99.90;;;;;;5060299;28;20052;-57
2023/03/17 07:48:17;;;;;;;6.97;4.25;;;8.60;99.90;;;;;;5042538;28;20676;-56
2023/03/17 07:50:44;;;;;;;6.90;4.10;;;8.70;99.90;;;;;;5045392;28;20044;-57
2023/03/17 07:53:10;;;;;;;8.43;3.75;;;8.80;99.90;;;;;;5047076;28;20037;-57
2023/03/17 07:55:37;;;;;;;6.80;4.22;;;8.80;99.90;;;;;;5061710;28;20399;-57
2023/03/17 07:58:03;;;;;;;5.07;3.58;;;8.80;99.90;;;;;;5060185;28;20638;-57
2023/03/17 08:00:29;;;;;;;7.28;3.65;;;8.90;99.90;;;;;;5062390;28;20044;-56
2023/03/17 08:02:56;;;;;;;6.28;3.60;;;8.90;99.90;;;;;;5058052;28;20071;-55
2023/03/17 08:05:25;;;;;;;7.32;3.85;;;9.00;99.90;;;;;;5021820;28;20043;-57
2023/03/17 08:07:52;;;;;;;6.30;3.72;;;9.00;99.90;;;;;;5041994;28;20052;-56
2023/03/17 08:10:18;;;;;;;5.68;3.42;;;9.00;99.90;;;;;;5044344;28;20053;-56
2023/03/17 08:12:44;;;;;;;7.97;3.55;;;9.10;99.90;;;;;;5055122;28;20410;-57
2023/03/17 08:15:10;;;;;;;6.68;3.92;;;9.10;99.90;;;;;;5064799;28;20060;-56
2023/03/17 08:17:36;;;;;;;7.57;3.85;;;9.10;99.90;;;;;;5041706;28;20149;-57
2023/03/17 08:20:03;;;;;;;7.25;3.88;;;9.20;99.90;;;;;;5040004;28;20039;-57
2023/03/17 08:22:30;;;;;;;5.90;3.38;;;9.20;99.90;;;;;;5061019;28;20075;-57
2023/03/17 08:24:57;;;;;;;6.47;4.40;;;9.30;99.90;;;;;;5047447;28;20377;-57
2023/03/17 08:27:23;;;;;;;6.50;3.58;;;9.30;99.90;;;;;;5056574;28;20052;-57
2023/03/17 08:29:49;;;;;;;5.53;3.42;;;9.40;99.90;;;;;;5042130;28;20509;-57
2023/03/17 08:32:18;;;;;;;6.15;3.50;;;9.40;99.90;;;;;;5058918;28;20095;-56
2023/03/17 08:34:45;;;;;;;5.88;4.32;;;9.50;99.90;;;;;;5059603;28;20049;-57
2023/03/17 08:37:11;;;;;;;6.90;4.30;;;9.50;99.90;;;;;;5054353;28;20062;-56
2023/03/17 08:39:37;;;;;;;10.18;4.55;;;9.70;99.90;;;;;;5046477;28;20098;-56
2023/03/17 08:42:03;;;;;;;9.13;4.78;;;9.80;99.90;;;;;;5038800;28;20045;-55
2023/03/17 08:44:29;;;;;;;8.45;4.88;;;9.90;99.90;;;;;;5059337;28;20040;-56
2023/03/17 08:46:55;;;;;;;8.05;4.70;;;10.10;99.90;;;;;;5059214;28;20037;-56
2023/03/17 08:49:22;;;;;;;9.60;4.38;;;10.30;99.90;;;;;;5038370;28;20463;-57
2023/03/17 08:51:47;;;;;;;7.93;4.68;;;10.50;99.90;;;;;;5057965;28;20048;-57
2023/03/17 08:54:14;;;;;;;10.70;5.28;;;10.70;99.90;;;;;;5061984;28;20055;-57
2023/03/17 08:56:41;;;;;;;12.48;5.45;;;11.00;99.90;;;;;;5057540;28;20037;-57
2023/03/17 08:59:07;;;;;;;10.80;6.50;;;11.20;99.90;;;;;;5061038;28;20041;-57
2023/03/17 09:01:34;;;;;;;12.90;5.82;;;11.40;99.90;;;;;;5019967;28;20443;-56
2023/03/17 09:04:01;;;;;;;11.27;5.68;;;11.50;99.90;;;;;;5040589;28;20503;-57
2023/03/17 09:06:27;;;;;;;11.30;6.30;;;11.60;99.90;;;;;;5055375;28;20048;-57
2023/03/17 09:08:56;;;;;;;12.57;6.95;;;11.70;99.90;;;;;;5065053;28;20581;-57
2023/03/17 09:11:25;;;;;;;13.82;6.55;;;11.80;99.90;;;;;;5045234;28;20090;-57
2023/03/17 09:13:52;;;;;;;12.07;5.80;;;11.80;99.90;;;;;;5042543;28;20288;-56
2023/03/17 09:16:18;;;;;;;10.23;6.20;;;11.90;99.90;;;;;;5063528;28;20045;-55
2023/03/17 09:18:48;;;;;;;11.07;5.70;;;11.90;99.90;;;;;;5059072;28;20491;-56
2023/03/17 09:21:15;;;;;;;11.82;6.32;;;12.00;99.90;;;;;;5044413;28;20055;-56
2023/03/17 09:23:41;;;;;;;11.70;5.03;;;12.20;99.90;;;;;;5037094;28;20542;-57
2023/03/17 09:26:07;;;;;;;5.97;4.38;;;12.40;99.90;;;;;;5062688;28;20126;-55
2023/03/17 09:28:33;;;;;;;10.15;5.00;;;12.60;99.90;;;;;;5058682;28;20032;-56
2023/03/17 09:31:01;;;;;;;5.30;3.70;;;12.70;99.90;;;;;;5053198;28;20040;-56
2023/03/17 09:33:27;;;;;;;8.48;3.90;;;12.90;99.90;;;;;;5038476;28;20047;-57
2023/03/17 09:35:56;;;;;;;5.88;3.60;;;13.00;99.90;;;;;;5054854;28;20394;-56
2023/03/17 09:38:24;;;;;;;6.05;3.22;;;13.20;99.90;;;;;;5059680;28;20166;-56
2023/03/17 09:41:18;;;;;;;4.82;3.30;;;13.40;99.90;;;;;;5021256;28;20140;-57
2023/03/17 09:44:05;;;;;;;6.50;3.97;;;13.40;99.90;;;;;;5060395;28;20325;-57
2023/03/17 09:46:43;;;;;;;9.95;4.20;;;13.50;99.90;;;;;;5032419;28;20059;-56
2023/03/17 09:49:21;;;;;;;7.45;3.47;;;13.70;99.90;;;;;;5042959;28;20633;-56
2023/03/17 09:51:48;;;;;;;9.85;3.78;;;13.70;99.90;;;;;;5051151;28;20081;-56
2023/03/17 09:54:27;;;;;;;5.82;3.65;;;13.80;99.90;;;;;;5055342;28;20052;-57
2023/03/17 09:57:17;;;;;;;6.45;3.30;;;13.90;99.90;;;;;;5033396;28;20518;-56
2023/03/17 09:59:52;;;;;;;5.03;3.65;;;14.00;99.90;;;;;;5048906;28;20055;-56
2023/03/17 10:02:27;;;;;;;7.93;3.88;;;14.00;99.90;;;;;;5040329;28;20044;-55
2023/03/17 10:04:53;;;;;;;6.07;3.65;;;14.00;99.90;;;;;;5035725;28;20048;-56
2023/03/17 10:07:38;;;;;;;7.32;3.55;;;14.20;99.90;;;;;;5057330;28;20301;-57
2023/03/17 10:10:21;;;;;;;10.70;3.80;;;14.20;99.90;;;;;;5041989;28;20294;-56
2023/03/17 10:13:04;;;;;;;5.78;3.90;;;14.40;99.90;;;;;;5056666;28;20479;-57
2023/03/17 10:15:48;;;;;;;6.78;4.10;;;14.50;99.90;;;;;;5053499;28;20063;-56
2023/03/17 10:18:16;;;;;;;5.57;4.03;;;14.60;99.90;;;;;;5052315;28;20032;-56
2023/03/17 10:20:49;;;;;;;5.63;4.03;;;14.70;99.90;;;;;;5039056;28;20048;-56
2023/03/17 10:23:19;;;;;;;8.75;3.97;;;14.70;99.90;;;;;;5043608;28;20036;-55
2023/03/17 10:25:48;;;;;;;6.07;4.13;;;14.80;99.90;;;;;;5041358;28;20101;-56
2023/03/17 10:28:37;;;;;;;6.40;5.15;;;14.90;99.80;;;;;;5042659;28;20101;-56
2023/03/17 10:31:19;;;;;;;8.00;4.18;;;14.90;99.60;;;;;;5058490;28;20043;-55
2023/03/17 10:33:51;;;;;;;7.00;4.15;;;14.90;99.30;;;;;;5061503;28;20044;-56
2023/03/17 10:36:36;;;;;;;8.38;4.78;;;14.90;99.60;;;;;;5055453;28;20037;-56
2023/03/17 10:39:05;;;;;;;6.28;4.13;;;14.90;99.90;;;;;;5040625;28;20040;-56
2023/03/17 10:41:35;;;;;;;4.97;4.05;;;15.00;99.70;;;;;;5062726;28;20920;-52
2023/03/17 10:44:01;;;;;;;10.23;4.60;;;15.10;99.70;;;;;;5038658;28;20513;-54
2023/03/17 10:46:28;;;;;;;6.53;3.97;;;15.20;99.60;;;;;;5054886;28;20059;-54
2023/03/17 10:49:01;;;;;;;9.85;4.80;;;15.20;99.00;;;;;;5058640;28;20124;-56
2023/03/17 10:51:35;;;;;;;7.35;4.18;;;15.20;99.20;;;;;;5052181;28;20687;-51
2023/03/17 10:54:10;;;;;;;6.22;4.10;;;15.30;99.20;;;;;;5057555;28;20048;-55
2023/03/17 10:56:40;;;;;;;7.07;4.82;;;15.40;99.30;;;;;;5057567;28;20102;-55
2023/03/17 10:59:16;;;;;;;7.35;4.50;;;15.50;99.40;;;;;;5038371;28;20042;-55
2023/03/17 11:02:04;;;;;;;7.45;4.20;;;15.70;99.40;;;;;;5033803;28;20043;-55
2023/03/17 11:04:35;;;;;;;8.85;4.65;;;15.80;98.80;;;;;;5024719;28;20048;-56
2023/03/17 11:07:16;;;;;;;8.70;4.80;;;15.80;98.80;;;;;;5057399;28;20063;-54
2023/03/17 11:09:43;;;;;;;7.00;4.78;;;15.80;98.90;;;;;;5041881;28;20048;-56
2023/03/17 11:12:36;;;;;;;7.57;4.53;;;16.00;99.10;;;;;;5059583;28;20437;-53
2023/03/17 11:15:16;;;;;;;9.45;5.50;;;16.10;98.70;;;;;;5056335;28;20036;-57
2023/03/17 11:17:59;;;;;;;6.75;5.30;;;16.10;98.90;;;;;;5061070;28;20132;-57
2023/03/17 11:20:33;;;;;;;9.77;4.68;;;16.10;97.80;;;;;;5054229;28;20501;-57
2023/03/17 11:22:59;;;;;;;7.95;4.85;;;16.20;98.60;;;;;;5058482;28;20047;-57
2023/03/17 11:25:27;;;;;;;8.48;5.25;;;16.40;98.60;;;;;;5045593;28;20036;-57
2023/03/17 11:27:52;;;;;;;8.25;5.35;;;16.50;98.30;;;;;;5062160;28;20438;-57
2023/03/17 11:30:33;;;;;;;10.30;5.10;;;16.50;98.40;;;;;;5059365;28;20122;-57
2023/03/17 11:33:33;;;;;;;9.38;5.30;;;16.60;98.20;;;;;;5044620;28;20036;-57
2023/03/17 11:36:04;;;;;;;8.75;5.00;;;16.70;98.10;;;;;;5041657;28;20131;-58
2023/03/17 11:38:58;;;;;;;6.90;5.13;;;16.70;97.50;;;;;;5029105;28;20052;-56
2023/03/17 11:41:33;;;;;;;9.13;5.43;;;16.60;97.20;;;;;;5042587;28;20044;-57
2023/03/17 11:44:07;;;;;;;7.82;5.43;;;16.40;96.90;;;;;;5062037;28;20060;-57
2023/03/17 11:46:45;;;;;;;7.45;5.65;;;16.50;97.50;;;;;;5041095;28;20051;-56
2023/03/17 11:49:14;;;;;;;11.23;6.07;;;16.60;97.10;;;;;;5037239;28;20136;-56
2023/03/17 11:51:55;;;;;;;8.05;5.45;;;16.50;97.30;;;;;;5062181;28;20093;-56
2023/03/17 11:54:36;;;;;;;8.98;5.28;;;16.50;97.60;;;;;;5038683;28;20037;-58
2023/03/17 11:57:07;;;;;;;9.27;5.45;;;16.70;97.10;;;;;;5059304;28;20119;-57
2023/03/17 11:59:57;;;;;;;8.05;5.63;;;16.60;97.30;;;;;;5058099;28;20433;-56
2023/03/17 12:02:59;;;;;;;6.93;5.15;;;16.70;97.00;;;;;;5057954;28;20072;-55
2023/03/17 12:05:27;;;;;;;7.82;5.32;;;16.50;96.50;;;;;;5017123;28;20475;-57
2023/03/17 12:07:57;;;;;;;10.30;5.72;;;16.40;97.10;;;;;;5059592;28;20048;-57
2023/03/17 12:10:36;;;;;;;9.07;6.00;;;16.40;97.20;;;;;;5041489;28;20048;-56
2023/03/17 12:13:08;;;;;;;8.77;5.03;;;16.20;97.00;;;;;;5043054;28;20186;-56
2023/03/17 12:15:52;;;;;;;8.85;5.60;;;16.10;97.40;;;;;;5042600;28;20495;-57
2023/03/17 12:18:36;;;;;;;9.48;5.32;;;16.10;97.60;;;;;;5028290;28;20085;-57
2023/03/17 12:21:13;;;;;;;6.20;5.25;;;16.10;97.70;;;;;;5025026;28;20518;-57
2023/03/17 12:23:51;;;;;;;8.20;5.63;;;16.00;97.80;;;;;;5044668;28;20157;-56
2023/03/17 12:26:23;;;;;;;6.35;5.38;;;16.00;98.00;;;;;;5069349;28;20059;-57
2023/03/17 12:29:08;;;;;;;8.70;5.80;;;16.00;98.00;;;;;;5068030;28;20506;-57
2023/03/17 12:31:38;;;;;;;8.48;5.25;;;16.00;97.90;;;;;;5061954;28;20050;-57
2023/03/17 12:34:09;;;;;;;8.18;5.75;;;15.90;97.80;;;;;;5020558;28;20135;-55
2023/03/17 12:36:37;;;;;;;9.48;5.38;;;15.90;98.10;;;;;;5060579;28;20036;-57
2023/03/17 12:39:20;;;;;;;7.82;5.47;;;16.00;97.90;;;;;;5044890;28;20123;-55
2023/03/17 12:42:12;;;;;;;9.57;5.38;;;16.10;98.00;;;;;;5054707;28;20177;-56
2023/03/17 12:45:03;;;;;;;9.40;5.70;;;16.20;97.80;;;;;;5054980;28;20129;-55
2023/03/17 12:47:50;;;;;;;9.85;6.10;;;16.10;97.70;;;;;;5027711;28;20044;-56
2023/03/17 12:50:44;;;;;;;9.68;5.90;;;15.90;97.60;;;;;;5058834;28;20086;-56
2023/03/17 12:53:33;;;;;;;9.23;5.75;;;15.60;98.00;;;;;;5058257;28;20049;-57
2023/03/17 12:56:28;;;;;;;8.93;6.35;;;15.50;98.40;;;;;;5056626;28;20098;-56
2023/03/17 12:58:59;;;;;;;10.57;5.68;;;15.30;98.30;;;;;;5043931;28;20227;-57
2023/03/17 13:01:33;;;;;;;9.27;5.82;;;15.30;99.00;;;;;;5056217;28;20575;-57
2023/03/17 13:04:23;;;;;;;10.07;6.60;;;15.20;99.10;;;;;;5040498;28;20044;-58
2023/03/17 13:07:09;;;;;;;10.25;6.30;;;15.10;99.20;;;;;;5037890;28;20044;-57